createdAt,value
2018-07-23T00:00:41.612Z,27.10
2018-07-23T00:01:45.020Z,27.09
2018-07-23T00:02:48.508Z,27.08
2018-07-23T00:03:51.884Z,27.09
2018-07-23T00:04:55.273Z,27.09
2018-07-23T00:05:58.681Z,27.08
2018-07-23T00:07:02.079Z,27.07
2018-07-23T00:08:05.525Z,27.07
2018-07-23T00:09:09.117Z,27.08
2018-07-23T00:10:12.518Z,27.08
2018-07-23T00:11:15.910Z,27.09
2018-07-23T00:12:19.350Z,27.09
2018-07-23T00:13:22.744Z,27.08
2018-07-23T00:14:26.144Z,27.08
2018-07-23T00:15:29.566Z,27.09
2018-07-23T00:16:32.946Z,27.09
2018-07-23T00:17:36.379Z,27.09
2018-07-23T00:18:39.778Z,27.09
2018-07-23T00:19:43.197Z,27.08
2018-07-23T00:20:46.617Z,27.09
2018-07-23T00:21:50.014Z,27.08
2018-07-23T00:22:53.427Z,27.09
2018-07-23T00:23:56.840Z,27.08
2018-07-23T00:25:00.232Z,27.08
2018-07-23T00:26:03.651Z,27.06
2018-07-23T00:27:07.153Z,27.07
2018-07-23T00:28:10.552Z,27.06
2018-07-23T00:29:13.974Z,27.06
2018-07-23T00:30:17.400Z,27.05
2018-07-23T00:31:20.843Z,27.06
2018-07-23T00:32:24.225Z,27.06
2018-07-23T00:33:27.594Z,27.06
2018-07-23T00:34:30.976Z,27.04
2018-07-23T00:35:34.394Z,27.05
2018-07-23T00:36:37.803Z,27.03
2018-07-23T00:37:41.219Z,27.04
2018-07-23T00:38:44.629Z,27.03
2018-07-23T00:39:48.036Z,27.03
2018-07-23T00:40:51.439Z,27.04
2018-07-23T00:41:54.871Z,27.03
2018-07-23T00:42:58.294Z,27.03
2018-07-23T00:44:01.693Z,27.02
2018-07-23T00:45:05.153Z,27.03
2018-07-23T00:46:08.572Z,27.02
2018-07-23T00:47:12.089Z,27.03
2018-07-23T00:48:15.469Z,27.02
2018-07-23T00:49:18.857Z,27.02
2018-07-23T00:50:22.242Z,27.03
2018-07-23T00:51:25.720Z,27.03
2018-07-23T00:52:29.152Z,27.04
2018-07-23T00:53:32.538Z,27.04
2018-07-23T00:54:35.925Z,27.03
2018-07-23T00:55:39.320Z,27.04
2018-07-23T00:56:42.712Z,27.04
2018-07-23T00:57:46.117Z,27.05
2018-07-23T00:58:49.518Z,27.05
2018-07-23T00:59:52.908Z,27.05
2018-07-23T01:00:56.318Z,27.04
2018-07-23T01:01:59.713Z,27.06
2018-07-23T01:03:05.965Z,27.05
2018-07-23T01:04:09.388Z,27.06
2018-07-23T01:05:12.780Z,27.05
2018-07-23T01:06:16.173Z,27.06
2018-07-23T01:07:19.588Z,27.07
2018-07-23T01:08:22.995Z,27.07
2018-07-23T01:09:26.408Z,27.08
2018-07-23T01:10:29.840Z,27.08
2018-07-23T01:11:33.260Z,27.09
2018-07-23T01:12:36.652Z,27.09
2018-07-23T01:13:40.082Z,27.10
2018-07-23T01:14:43.507Z,27.09
2018-07-23T01:15:46.909Z,27.09
2018-07-23T01:16:50.290Z,27.09
2018-07-23T01:17:53.716Z,27.09
2018-07-23T01:18:57.152Z,27.09
2018-07-23T01:20:00.832Z,27.09
2018-07-23T01:21:04.263Z,27.09
2018-07-23T01:22:07.661Z,27.08
2018-07-23T01:23:11.034Z,27.09
2018-07-23T01:24:14.444Z,27.09
2018-07-23T01:25:17.851Z,27.10
2018-07-23T01:26:21.284Z,27.09
2018-07-23T01:27:24.921Z,27.10
2018-07-23T01:28:28.354Z,27.10
2018-07-23T01:29:31.824Z,27.10
2018-07-23T01:30:35.240Z,27.09
2018-07-23T01:31:38.624Z,27.08
2018-07-23T01:32:42.030Z,27.08
2018-07-23T01:33:45.454Z,27.09
2018-07-23T01:34:48.918Z,27.10
2018-07-23T01:35:52.320Z,27.09
2018-07-23T01:36:55.709Z,27.10
2018-07-23T01:37:59.108Z,27.09
2018-07-23T01:39:02.537Z,27.09
2018-07-23T01:40:06.086Z,27.10
2018-07-23T01:41:09.465Z,27.10
2018-07-23T01:42:13.043Z,27.09
2018-07-23T01:43:16.440Z,27.09
2018-07-23T01:44:19.828Z,27.10
2018-07-23T01:45:23.279Z,27.10
2018-07-23T01:46:26.687Z,27.10
2018-07-23T01:47:30.073Z,27.11
2018-07-23T01:48:33.464Z,27.10
2018-07-23T01:49:36.870Z,27.11
2018-07-23T01:50:40.279Z,27.10
2018-07-23T01:51:43.668Z,27.09
2018-07-23T01:52:47.093Z,27.09
2018-07-23T01:53:50.513Z,27.10
2018-07-23T01:54:53.913Z,27.10
2018-07-23T01:55:57.414Z,27.09
2018-07-23T01:57:00.844Z,27.11
2018-07-23T01:58:04.232Z,27.09
2018-07-23T01:59:07.637Z,27.10
2018-07-23T02:00:11.116Z,27.10
2018-07-23T02:01:14.578Z,27.11
2018-07-23T02:02:17.976Z,27.11
2018-07-23T02:03:21.532Z,27.12
2018-07-23T02:04:24.979Z,27.11
2018-07-23T02:05:28.385Z,27.12
2018-07-23T02:06:31.799Z,27.11
2018-07-23T02:07:35.265Z,27.11
2018-07-23T02:08:38.728Z,27.10
2018-07-23T02:09:42.140Z,27.11
2018-07-23T02:10:45.566Z,27.12
2018-07-23T02:11:48.965Z,27.11
2018-07-23T02:12:52.475Z,27.12
2018-07-23T02:13:55.866Z,27.11
2018-07-23T02:14:59.269Z,27.12
2018-07-23T02:16:02.689Z,27.12
2018-07-23T02:17:06.399Z,27.12
2018-07-23T02:18:09.849Z,27.12
2018-07-23T02:19:13.268Z,27.11
2018-07-23T02:20:16.654Z,27.12
2018-07-23T02:21:20.071Z,27.11
2018-07-23T02:22:23.516Z,27.13
2018-07-23T02:23:26.932Z,27.12
2018-07-23T02:24:30.315Z,27.12
2018-07-23T02:25:33.788Z,27.12
2018-07-23T02:26:37.207Z,27.12
2018-07-23T02:27:40.605Z,27.11
2018-07-23T02:28:43.989Z,27.12
2018-07-23T02:29:47.408Z,27.11
2018-07-23T02:30:50.838Z,27.12
2018-07-23T02:31:54.225Z,27.11
2018-07-23T02:32:57.627Z,27.12
2018-07-23T02:34:01.028Z,27.12
2018-07-23T02:35:04.530Z,27.12
2018-07-23T02:36:08.121Z,27.10
2018-07-23T02:37:11.531Z,27.10
2018-07-23T02:38:14.937Z,27.10
2018-07-23T02:39:18.349Z,27.10
2018-07-23T02:40:21.726Z,27.09
2018-07-23T02:41:25.133Z,27.09
2018-07-23T02:42:28.561Z,27.09
2018-07-23T02:43:31.970Z,27.08
2018-07-23T02:44:35.455Z,27.09
2018-07-23T02:45:39.024Z,27.09
2018-07-23T02:46:42.486Z,27.09
2018-07-23T02:47:45.872Z,27.08
2018-07-23T02:48:49.283Z,27.07
2018-07-23T02:49:52.693Z,27.07
2018-07-23T02:50:56.069Z,27.08
2018-07-23T02:51:59.469Z,27.06
2018-07-23T02:53:02.876Z,27.07
2018-07-23T02:54:06.339Z,27.05
2018-07-23T02:55:09.786Z,27.06
2018-07-23T02:56:13.209Z,27.06
2018-07-23T02:57:16.604Z,27.06
2018-07-23T02:58:20.000Z,27.05
2018-07-23T02:59:23.403Z,27.06
2018-07-23T03:00:26.794Z,27.07
2018-07-23T03:01:30.177Z,27.06
2018-07-23T03:02:33.617Z,27.05
2018-07-23T03:03:37.033Z,27.06
2018-07-23T03:04:40.471Z,27.06
2018-07-23T03:05:43.864Z,27.05
2018-07-23T03:06:47.257Z,27.04
2018-07-23T03:07:50.643Z,27.03
2018-07-23T03:08:54.056Z,27.02
2018-07-23T03:09:57.488Z,27.03
2018-07-23T03:11:01.083Z,27.03
2018-07-23T03:12:04.520Z,27.01
2018-07-23T03:13:08.331Z,27.00
2018-07-23T03:14:11.714Z,27.01
2018-07-23T03:15:15.398Z,27.00
2018-07-23T03:16:19.473Z,27.00
2018-07-23T03:17:22.918Z,27.00
2018-07-23T03:18:26.294Z,27.00
2018-07-23T03:19:29.696Z,27.00
2018-07-23T03:20:33.345Z,27.01
2018-07-23T03:21:36.795Z,27.01
2018-07-23T03:22:40.180Z,27.00
2018-07-23T03:23:43.603Z,27.00
2018-07-23T03:24:47.017Z,27.01
2018-07-23T03:25:50.455Z,27.01
2018-07-23T03:26:53.874Z,27.02
2018-07-23T03:27:57.242Z,27.02
2018-07-23T03:29:00.626Z,27.01
2018-07-23T03:30:04.505Z,27.01
2018-07-23T03:31:08.178Z,27.01
2018-07-23T03:32:11.568Z,27.01
2018-07-23T03:33:14.976Z,27.02
2018-07-23T03:34:18.447Z,27.01
2018-07-23T03:35:21.885Z,27.02
2018-07-23T03:36:25.312Z,27.01
2018-07-23T03:37:28.716Z,27.01
2018-07-23T03:38:32.140Z,27.01
2018-07-23T03:39:35.505Z,27.00
2018-07-23T03:40:38.921Z,27.01
2018-07-23T03:41:42.435Z,27.01
2018-07-23T03:42:45.855Z,27.00
2018-07-23T03:43:49.246Z,27.01
2018-07-23T03:44:52.680Z,27.01
2018-07-23T03:45:56.076Z,27.01
2018-07-23T03:46:59.572Z,27.01
2018-07-23T03:48:02.989Z,27.01
2018-07-23T03:49:06.932Z,27.00
2018-07-23T03:50:10.355Z,27.01
2018-07-23T03:51:13.774Z,27.00
2018-07-23T03:52:17.226Z,26.99
2018-07-23T03:53:20.648Z,27.00
2018-07-23T03:54:24.071Z,27.00
2018-07-23T03:55:27.438Z,26.99
2018-07-23T03:56:30.863Z,26.99
2018-07-23T03:57:34.304Z,26.99
2018-07-23T03:58:37.820Z,26.98
2018-07-23T03:59:41.224Z,26.97
2018-07-23T04:00:44.624Z,26.99
2018-07-23T04:01:48.061Z,26.99
2018-07-23T04:02:51.473Z,26.98
2018-07-23T04:03:54.884Z,26.98
2018-07-23T04:04:58.306Z,26.98
2018-07-23T04:06:01.738Z,26.98
2018-07-23T04:07:05.184Z,26.98
2018-07-23T04:08:08.600Z,26.98
2018-07-23T04:09:11.994Z,26.99
2018-07-23T04:10:15.415Z,26.99
2018-07-23T04:11:18.804Z,26.99
2018-07-23T04:12:22.224Z,26.99
2018-07-23T04:13:25.637Z,26.98
2018-07-23T04:14:29.348Z,26.99
2018-07-23T04:15:32.771Z,26.98
2018-07-23T04:16:36.252Z,26.98
2018-07-23T04:17:39.623Z,26.98
2018-07-23T04:18:43.044Z,26.97
2018-07-23T04:19:46.443Z,26.97
2018-07-23T04:20:49.849Z,26.97
2018-07-23T04:21:53.274Z,26.97
2018-07-23T04:22:56.662Z,26.97
2018-07-23T04:24:00.088Z,26.96
2018-07-23T04:25:03.510Z,26.97
2018-07-23T04:26:06.930Z,26.96
2018-07-23T04:27:10.458Z,26.93
2018-07-23T04:28:13.833Z,26.94
2018-07-23T04:29:17.229Z,26.93
2018-07-23T04:30:20.671Z,26.93
2018-07-23T04:31:24.057Z,26.92
2018-07-23T04:32:27.472Z,26.93
2018-07-23T04:33:30.869Z,26.93
2018-07-23T04:34:34.293Z,26.92
2018-07-23T04:35:37.711Z,26.91
2018-07-23T04:36:41.107Z,26.91
2018-07-23T04:37:44.541Z,26.90
2018-07-23T04:38:47.922Z,26.90
2018-07-23T04:39:51.368Z,26.90
2018-07-23T04:40:54.786Z,26.91
2018-07-23T04:41:58.215Z,26.91
2018-07-23T04:43:01.618Z,26.91
2018-07-23T04:44:05.034Z,26.92
2018-07-23T04:45:08.458Z,26.91
2018-07-23T04:46:11.850Z,26.92
2018-07-23T04:47:15.257Z,26.90
2018-07-23T04:48:18.645Z,26.90
2018-07-23T04:49:22.084Z,26.89
2018-07-23T04:50:25.511Z,26.90
2018-07-23T04:51:28.932Z,26.89
2018-07-23T04:52:32.344Z,26.89
2018-07-23T04:53:35.783Z,26.90
2018-07-23T04:54:39.159Z,26.89
2018-07-23T04:55:42.555Z,26.88
2018-07-23T04:56:45.956Z,26.87
2018-07-23T04:57:49.340Z,26.88
2018-07-23T04:58:52.756Z,26.87
2018-07-23T04:59:56.148Z,26.87
2018-07-23T05:00:59.603Z,26.87
2018-07-23T05:02:03.023Z,26.85
2018-07-23T05:03:06.452Z,26.85
2018-07-23T05:04:09.871Z,26.85
2018-07-23T05:05:13.248Z,26.85
2018-07-23T05:06:16.649Z,26.85
2018-07-23T05:07:20.156Z,26.84
2018-07-23T05:08:23.587Z,26.84
2018-07-23T05:09:26.994Z,26.85
2018-07-23T05:10:30.418Z,26.85
2018-07-23T05:11:33.865Z,26.84
2018-07-23T05:12:37.302Z,26.84
2018-07-23T05:13:40.739Z,26.85
2018-07-23T05:14:44.138Z,26.86
2018-07-23T05:15:47.551Z,26.85
2018-07-23T05:16:50.975Z,26.85
2018-07-23T05:17:54.401Z,26.86
2018-07-23T05:18:57.832Z,26.84
2018-07-23T05:20:01.218Z,26.82
2018-07-23T05:21:04.635Z,26.81
2018-07-23T05:22:08.110Z,26.77
2018-07-23T05:23:11.567Z,26.75
2018-07-23T05:24:14.982Z,26.73
2018-07-23T05:25:18.388Z,26.70
2018-07-23T05:26:21.785Z,26.68
2018-07-23T05:27:25.282Z,26.65
2018-07-23T05:28:28.864Z,26.64
2018-07-23T05:29:32.260Z,26.61
2018-07-23T05:30:35.717Z,26.57
2018-07-23T05:31:39.241Z,26.55
2018-07-23T05:32:42.660Z,26.55
2018-07-23T05:33:46.072Z,26.53
2018-07-23T05:34:49.458Z,26.51
2018-07-23T05:35:52.872Z,26.49
2018-07-23T05:36:56.783Z,26.47
2018-07-23T05:38:00.228Z,26.44
2018-07-23T05:39:04.100Z,26.43
2018-07-23T05:40:07.727Z,26.42
2018-07-23T05:41:11.255Z,26.40
2018-07-23T05:42:14.786Z,26.39
2018-07-23T05:43:18.528Z,26.36
2018-07-23T05:44:22.332Z,26.34
2018-07-23T05:45:25.737Z,26.33
2018-07-23T05:46:29.176Z,26.32
2018-07-23T05:47:32.545Z,26.31
2018-07-23T05:48:35.994Z,26.28
2018-07-23T05:49:39.444Z,26.28
2018-07-23T05:50:42.838Z,26.27
2018-07-23T05:51:46.251Z,26.26
2018-07-23T05:52:49.660Z,26.24
2018-07-23T05:53:53.080Z,26.22
2018-07-23T05:54:56.685Z,26.17
2018-07-23T05:56:00.081Z,26.15
2018-07-23T05:57:03.470Z,26.12
2018-07-23T05:58:07.075Z,26.08
2018-07-23T05:59:10.531Z,26.07
2018-07-23T06:00:14.261Z,26.03
2018-07-23T06:01:17.778Z,25.99
2018-07-23T06:02:21.177Z,25.96
2018-07-23T06:03:24.693Z,25.94
2018-07-23T06:04:28.143Z,25.93
2018-07-23T06:05:31.552Z,25.88
2018-07-23T06:06:34.998Z,25.81
2018-07-23T06:07:38.441Z,25.80
2018-07-23T06:08:41.859Z,25.76
2018-07-23T06:09:45.288Z,25.73
2018-07-23T06:10:48.752Z,25.74
2018-07-23T06:11:52.286Z,25.71
2018-07-23T06:12:56.222Z,25.74
2018-07-23T06:13:59.638Z,25.74
2018-07-23T06:15:03.096Z,25.74
2018-07-23T06:16:06.656Z,25.74
2018-07-23T06:17:10.069Z,25.75
2018-07-23T06:18:13.478Z,25.77
2018-07-23T06:19:16.896Z,25.77
2018-07-23T06:20:20.368Z,25.78
2018-07-23T06:21:23.857Z,25.74
2018-07-23T06:22:27.327Z,25.73
2018-07-23T06:23:30.791Z,25.73
2018-07-23T06:24:34.286Z,25.70
2018-07-23T06:25:37.800Z,25.68
2018-07-23T06:26:41.268Z,25.67
2018-07-23T06:27:44.672Z,25.68
2018-07-23T06:28:48.065Z,25.69
2018-07-23T06:29:51.474Z,25.69
2018-07-23T06:30:54.900Z,25.68
2018-07-23T06:31:58.757Z,25.64
2018-07-23T06:33:02.177Z,25.62
2018-07-23T06:34:05.643Z,25.60
2018-07-23T06:35:09.179Z,25.61
2018-07-23T06:36:12.764Z,25.59
2018-07-23T06:37:16.172Z,25.56
2018-07-23T06:38:19.638Z,25.55
2018-07-23T06:39:23.052Z,25.53
2018-07-23T06:40:26.480Z,25.48
2018-07-23T06:41:30.014Z,25.48
2018-07-23T06:42:33.526Z,25.46
2018-07-23T06:43:37.104Z,25.42
2018-07-23T06:44:40.585Z,25.40
2018-07-23T06:45:44.019Z,25.38
2018-07-23T06:46:47.724Z,25.39
2018-07-23T06:47:51.136Z,25.39
2018-07-23T06:48:54.514Z,25.40
2018-07-23T06:49:57.919Z,25.41
2018-07-23T06:51:02.337Z,25.44
2018-07-23T06:52:05.818Z,25.45
2018-07-23T06:53:09.294Z,25.49
2018-07-23T06:54:12.743Z,25.51
2018-07-23T06:55:17.783Z,25.53
2018-07-23T06:56:24.354Z,25.53
2018-07-23T06:57:28.177Z,25.55
2018-07-23T06:58:31.772Z,25.55
2018-07-23T06:59:36.346Z,25.55
2018-07-23T07:00:40.185Z,25.55
2018-07-23T07:01:44.559Z,25.54
2018-07-23T07:02:48.110Z,25.55
2018-07-23T07:03:51.540Z,25.57
2018-07-23T07:04:54.960Z,25.56
2018-07-23T07:05:58.445Z,25.58
2018-07-23T07:07:01.942Z,25.58
2018-07-23T07:08:05.807Z,25.58
2018-07-23T07:09:10.385Z,25.60
2018-07-23T07:10:13.788Z,25.61
2018-07-23T07:11:23.533Z,25.63
2018-07-23T07:12:27.068Z,25.65
2018-07-23T07:13:30.605Z,25.71
2018-07-23T07:14:34.027Z,25.73
2018-07-23T07:15:37.506Z,25.78
2018-07-23T07:16:40.924Z,25.80
2018-07-23T07:17:44.716Z,25.80
2018-07-23T07:18:48.137Z,25.81
2018-07-23T07:19:51.933Z,25.83
2018-07-23T07:20:55.380Z,25.84
2018-07-23T07:21:58.782Z,25.85
2018-07-23T07:23:02.578Z,25.87
2018-07-23T07:24:06.347Z,25.88
2018-07-23T07:25:09.773Z,25.88
2018-07-23T07:26:13.169Z,25.90
2018-07-23T07:27:16.871Z,25.92
2018-07-23T07:28:21.608Z,25.93
2018-07-23T07:29:25.040Z,25.94
2018-07-23T07:30:28.435Z,25.97
2018-07-23T07:31:31.857Z,25.97
2018-07-23T07:32:35.296Z,26.00
2018-07-23T07:33:38.691Z,26.00
2018-07-23T07:34:42.272Z,26.01
2018-07-23T07:35:45.700Z,26.01
2018-07-23T07:36:49.124Z,26.02
2018-07-23T07:37:52.600Z,26.03
2018-07-23T07:38:56.010Z,26.02
2018-07-23T07:39:59.453Z,26.04
2018-07-23T07:41:02.884Z,26.04
2018-07-23T07:42:06.582Z,26.06
2018-07-23T07:43:10.039Z,26.06
2018-07-23T07:44:13.455Z,26.05
2018-07-23T07:45:17.078Z,26.06
2018-07-23T07:46:20.614Z,26.06
2018-07-23T07:47:24.017Z,26.07
2018-07-23T07:48:27.550Z,26.08
2018-07-23T07:49:30.998Z,26.07
2018-07-23T07:52:02.485Z,26.10
2018-07-23T07:53:05.885Z,26.09
2018-07-23T07:54:09.595Z,26.09
2018-07-23T07:55:13.021Z,26.09
2018-07-23T07:56:16.452Z,26.09
2018-07-23T07:57:19.901Z,26.10
2018-07-23T07:58:23.319Z,26.10
2018-07-23T07:59:26.727Z,26.09
2018-07-23T08:00:30.138Z,26.10
2018-07-23T08:01:33.578Z,26.09
2018-07-23T08:02:36.990Z,26.10
2018-07-23T08:03:40.480Z,26.10
2018-07-23T08:04:43.930Z,26.10
2018-07-23T08:05:47.361Z,26.12
2018-07-23T08:06:50.781Z,26.10
2018-07-23T08:07:54.247Z,26.11
2018-07-23T08:08:57.661Z,26.11
2018-07-23T08:10:01.083Z,26.11
2018-07-23T08:11:04.540Z,26.11
2018-07-23T08:12:08.307Z,26.11
2018-07-23T08:13:11.694Z,26.11
2018-07-23T08:14:15.137Z,26.13
2018-07-23T08:15:18.558Z,26.12
2018-07-23T08:16:21.960Z,26.12
2018-07-23T08:17:25.450Z,26.13
2018-07-23T08:18:28.912Z,26.11
2018-07-23T08:19:32.465Z,26.12
2018-07-23T08:20:35.975Z,26.12
2018-07-23T08:21:39.672Z,26.12
2018-07-23T08:22:43.144Z,26.13
2018-07-23T08:23:46.549Z,26.13
2018-07-23T08:24:50.010Z,26.14
2018-07-23T08:25:53.419Z,26.14
2018-07-23T08:26:56.866Z,26.14
2018-07-23T08:28:00.321Z,26.14
2018-07-23T08:29:03.843Z,26.14
2018-07-23T08:30:07.608Z,26.15
2018-07-23T08:31:11.012Z,26.15
2018-07-23T08:32:14.434Z,26.16
2018-07-23T08:33:17.964Z,26.17
2018-07-23T08:34:21.382Z,26.16
2018-07-23T08:35:24.797Z,26.16
2018-07-23T08:36:28.234Z,26.16
2018-07-23T08:37:31.620Z,26.18
2018-07-23T08:38:35.127Z,26.18
2018-07-23T08:39:38.548Z,26.18
2018-07-23T08:40:42.122Z,26.18
2018-07-23T08:41:45.579Z,26.19
2018-07-23T08:42:49.010Z,26.20
2018-07-23T08:43:52.481Z,26.20
2018-07-23T08:44:56.670Z,26.20
2018-07-23T08:46:00.085Z,26.20
2018-07-23T08:47:03.516Z,26.21
2018-07-23T08:48:07.178Z,26.20
2018-07-23T08:49:10.624Z,26.21
2018-07-23T08:50:14.025Z,26.19
2018-07-23T08:51:17.460Z,26.21
2018-07-23T08:52:20.836Z,26.20
2018-07-23T08:53:24.607Z,26.20
2018-07-23T08:54:28.589Z,26.20
2018-07-23T08:55:32.041Z,26.20
2018-07-23T08:56:35.426Z,26.19
2018-07-23T08:57:38.870Z,26.19
2018-07-23T08:58:42.262Z,26.19
2018-07-23T08:59:45.680Z,26.19
2018-07-23T09:00:49.364Z,26.20
2018-07-23T09:01:52.767Z,26.19
2018-07-23T09:02:56.187Z,26.20
2018-07-23T09:03:59.597Z,26.20
2018-07-23T09:05:03.020Z,26.20
2018-07-23T09:06:07.239Z,26.21
2018-07-23T09:07:10.634Z,26.22
2018-07-23T09:08:14.152Z,26.22
2018-07-23T09:09:17.574Z,26.21
2018-07-23T09:10:21.018Z,26.21
2018-07-23T09:11:24.464Z,26.22
2018-07-23T09:12:28.157Z,26.23
2018-07-23T09:13:31.587Z,26.23
2018-07-23T09:14:34.982Z,26.25
2018-07-23T09:15:38.417Z,26.24
2018-07-23T09:16:41.869Z,26.26
2018-07-23T09:17:45.399Z,26.27
2018-07-23T09:18:48.795Z,26.27
2018-07-23T09:19:52.320Z,26.29
2018-07-23T09:20:55.959Z,26.30
2018-07-23T09:21:59.455Z,26.32
2018-07-23T09:23:02.891Z,26.32
2018-07-23T09:24:06.349Z,26.31
2018-07-23T09:25:09.767Z,26.32
2018-07-23T09:26:13.589Z,26.33
2018-07-23T09:27:17.254Z,26.35
2018-07-23T09:28:20.964Z,26.35
2018-07-23T09:29:24.362Z,26.35
2018-07-23T09:30:33.085Z,26.35
2018-07-23T09:31:37.224Z,26.35
2018-07-23T09:32:40.667Z,26.36
2018-07-23T09:33:45.089Z,26.36
2018-07-23T09:34:48.756Z,26.36
2018-07-23T09:35:52.943Z,26.36
2018-07-23T09:36:57.167Z,26.36
2018-07-23T09:38:01.363Z,26.37
2018-07-23T09:39:08.170Z,26.37
2018-07-23T09:40:11.605Z,26.36
2018-07-23T09:41:15.072Z,26.37
2018-07-23T09:42:18.750Z,26.37
2018-07-23T09:43:22.202Z,26.37
2018-07-23T09:44:25.924Z,26.38
2018-07-23T09:45:29.713Z,26.38
2018-07-23T09:46:33.132Z,26.38
2018-07-23T09:47:36.733Z,26.38
2018-07-23T09:48:40.240Z,26.39
2018-07-23T09:49:43.919Z,26.38
2018-07-23T09:50:47.541Z,26.38
2018-07-23T09:51:51.068Z,26.37
2018-07-23T09:52:54.904Z,26.38
2018-07-23T09:53:58.354Z,26.37
2018-07-23T09:55:01.810Z,26.38
2018-07-23T09:56:05.309Z,26.37
2018-07-23T09:57:08.724Z,26.38
2018-07-23T09:58:12.163Z,26.36
2018-07-23T09:59:15.562Z,26.37
2018-07-23T10:00:24.353Z,26.37
2018-07-23T10:01:27.884Z,26.36
2018-07-23T10:02:31.312Z,26.37
2018-07-23T10:03:34.819Z,26.36
2018-07-23T10:04:38.240Z,26.36
2018-07-23T10:05:41.708Z,26.36
2018-07-23T10:06:45.138Z,26.36
2018-07-23T10:07:48.535Z,26.36
2018-07-23T10:08:51.970Z,26.37
2018-07-23T10:09:55.384Z,26.36
2018-07-23T10:10:58.849Z,26.36
2018-07-23T10:12:02.296Z,26.37
2018-07-23T10:13:05.757Z,26.36
2018-07-23T10:14:09.882Z,26.36
2018-07-23T10:15:13.427Z,26.37
2018-07-23T10:16:17.388Z,26.36
2018-07-23T10:17:20.935Z,26.36
2018-07-23T10:18:24.349Z,26.36
2018-07-23T10:19:27.761Z,26.36
2018-07-23T10:20:31.150Z,26.38
2018-07-23T10:21:34.538Z,26.37
2018-07-23T10:22:37.930Z,26.37
2018-07-23T10:23:41.328Z,26.36
2018-07-23T10:24:44.756Z,26.36
2018-07-23T10:25:48.213Z,26.35
2018-07-23T10:26:51.644Z,26.34
2018-07-23T10:27:55.057Z,26.35
2018-07-23T10:28:58.496Z,26.34
2018-07-23T10:30:03.838Z,26.35
2018-07-23T10:31:08.949Z,26.34
2018-07-23T10:32:12.934Z,26.35
2018-07-23T10:33:16.459Z,26.34
2018-07-23T10:34:19.925Z,26.35
2018-07-23T10:35:23.360Z,26.35
2018-07-23T10:36:26.897Z,26.35
2018-07-23T10:37:30.426Z,26.36
2018-07-23T10:38:33.850Z,26.37
2018-07-23T10:39:37.254Z,26.36
2018-07-23T10:40:40.683Z,26.38
2018-07-23T10:41:44.098Z,26.38
2018-07-23T10:42:47.846Z,26.40
2018-07-23T10:43:51.275Z,26.40
2018-07-23T10:44:55.304Z,26.40
2018-07-23T10:45:58.732Z,26.41
2018-07-23T10:47:05.682Z,26.41
2018-07-23T10:48:09.122Z,26.41
2018-07-23T10:49:12.545Z,26.41
2018-07-23T10:50:16.290Z,26.42
2018-07-23T10:51:19.983Z,26.43
2018-07-23T10:52:23.871Z,26.42
2018-07-23T10:53:27.569Z,26.41
2018-07-23T10:54:30.980Z,26.43
2018-07-23T10:55:34.420Z,26.42
2018-07-23T10:56:37.998Z,26.43
2018-07-23T10:57:41.393Z,26.44
2018-07-23T10:58:44.819Z,26.43
2018-07-23T10:59:48.242Z,26.43
2018-07-23T11:00:51.801Z,26.47
2018-07-23T11:01:55.309Z,26.47
2018-07-23T11:02:58.742Z,26.47
2018-07-23T11:04:02.163Z,26.46
2018-07-23T11:05:06.480Z,26.46
2018-07-23T11:06:09.907Z,26.45
2018-07-23T11:07:13.361Z,26.46
2018-07-23T11:08:16.815Z,26.45
2018-07-23T11:09:20.263Z,26.46
2018-07-23T11:10:23.777Z,26.45
2018-07-23T11:11:27.232Z,26.45
2018-07-23T11:12:30.647Z,26.46
2018-07-23T11:13:34.048Z,26.45
2018-07-23T11:14:37.491Z,26.44
2018-07-23T11:15:40.916Z,26.45
2018-07-23T11:16:44.305Z,26.45
2018-07-23T11:17:47.741Z,26.45
2018-07-23T11:18:51.183Z,26.46
2018-07-23T11:19:54.601Z,26.44
2018-07-23T11:20:58.027Z,26.46
2018-07-23T11:22:01.412Z,26.44
2018-07-23T11:23:05.068Z,26.45
2018-07-23T11:24:08.508Z,26.45
2018-07-23T11:25:39.876Z,26.45
2018-07-23T11:26:15.538Z,26.45
2018-07-23T11:27:18.888Z,26.45
2018-07-23T11:28:22.313Z,26.45
2018-07-23T11:29:25.766Z,26.45
2018-07-23T11:30:29.150Z,26.45
2018-07-23T11:31:32.596Z,26.45
2018-07-23T11:32:36.591Z,26.44
2018-07-23T11:33:40.039Z,26.45
2018-07-23T11:34:43.472Z,26.44
2018-07-23T11:35:46.871Z,26.45
2018-07-23T11:36:50.320Z,26.47
2018-07-23T11:37:53.760Z,26.47
2018-07-23T11:38:57.232Z,26.46
2018-07-23T11:40:00.671Z,26.47
2018-07-23T11:41:04.097Z,26.46
2018-07-23T11:42:07.584Z,26.46
2018-07-23T11:43:11.008Z,26.47
2018-07-23T11:44:14.460Z,26.47
2018-07-23T11:45:17.910Z,26.47
2018-07-23T11:46:24.984Z,26.47
2018-07-23T11:47:24.874Z,26.47
2018-07-23T11:48:28.260Z,26.47
2018-07-23T11:49:31.657Z,26.46
2018-07-23T11:50:35.785Z,26.46
2018-07-23T11:51:39.186Z,26.45
2018-07-23T11:52:42.612Z,26.47
2018-07-23T11:53:46.115Z,26.48
2018-07-23T11:54:49.522Z,26.47
2018-07-23T11:55:53.061Z,26.46
2018-07-23T11:56:56.529Z,26.47
2018-07-23T11:57:59.913Z,26.47
2018-07-23T11:59:03.337Z,26.48
2018-07-23T12:00:06.819Z,26.47
2018-07-23T12:01:10.247Z,26.47
2018-07-23T12:02:14.625Z,26.48
2018-07-23T12:03:18.041Z,26.48
2018-07-23T12:04:21.485Z,26.48
2018-07-23T12:05:24.911Z,26.49
2018-07-23T12:06:28.340Z,26.48
2018-07-23T12:07:31.765Z,26.50
2018-07-23T12:08:35.188Z,26.49
2018-07-23T12:09:38.610Z,26.48
2018-07-23T12:10:42.469Z,26.49
2018-07-23T12:11:45.985Z,26.49
2018-07-23T12:12:50.139Z,26.49
2018-07-23T12:13:53.531Z,26.49
2018-07-23T12:14:56.952Z,26.50
2018-07-23T12:16:00.362Z,26.50
2018-07-23T12:17:03.815Z,26.49
2018-07-23T12:18:07.246Z,26.50
2018-07-23T12:19:10.697Z,26.51
2018-07-23T12:20:14.125Z,26.51
2018-07-23T12:21:17.586Z,26.51
2018-07-23T12:22:21.008Z,26.51
2018-07-23T12:23:25.387Z,26.51
2018-07-23T12:24:28.794Z,26.52
2018-07-23T12:25:32.195Z,26.52
2018-07-23T12:26:35.635Z,26.52
2018-07-23T12:27:39.060Z,26.52
2018-07-23T12:28:42.494Z,26.52
2018-07-23T12:29:45.910Z,26.51
2018-07-23T12:30:49.387Z,26.53
2018-07-23T12:31:52.813Z,26.53
2018-07-23T12:32:56.210Z,26.53
2018-07-23T12:33:59.753Z,26.54
2018-07-23T12:35:03.195Z,26.53
2018-07-23T12:36:07.141Z,26.53
2018-07-23T12:37:10.615Z,26.53
2018-07-23T12:38:14.056Z,26.54
2018-07-23T12:39:18.160Z,26.53
2018-07-23T12:40:21.714Z,26.54
2018-07-23T12:41:25.138Z,26.54
2018-07-23T12:42:28.591Z,26.55
2018-07-23T12:43:32.107Z,26.54
2018-07-23T12:44:35.551Z,26.56
2018-07-23T12:45:38.969Z,26.56
2018-07-23T12:46:42.386Z,26.56
2018-07-23T12:47:46.011Z,26.56
2018-07-23T12:48:49.428Z,26.56
2018-07-23T12:49:52.840Z,26.56
2018-07-23T12:50:57.146Z,26.57
2018-07-23T12:52:00.552Z,26.58
2018-07-23T12:53:06.065Z,26.58
2018-07-23T12:54:09.674Z,26.58
2018-07-23T12:55:14.189Z,26.58
2018-07-23T12:56:17.673Z,26.58
2018-07-23T12:57:21.090Z,26.59
2018-07-23T12:58:25.405Z,26.59
2018-07-23T12:59:28.803Z,26.58
2018-07-23T13:00:32.177Z,26.57
2018-07-23T13:01:35.625Z,26.59
2018-07-23T13:02:39.299Z,26.59
2018-07-23T13:03:42.755Z,26.58
2018-07-23T13:04:46.327Z,26.59
2018-07-23T13:05:49.832Z,26.60
2018-07-23T13:06:53.355Z,26.59
2018-07-23T13:07:56.759Z,26.61
2018-07-23T13:09:00.513Z,26.61
2018-07-23T13:10:05.065Z,26.61
2018-07-23T13:11:09.472Z,26.59
2018-07-23T13:12:13.251Z,26.61
2018-07-23T13:13:16.777Z,26.61
2018-07-23T13:14:20.227Z,26.59
2018-07-23T13:15:23.682Z,26.61
2018-07-23T13:16:27.078Z,26.60
2018-07-23T13:17:30.504Z,26.60
2018-07-23T13:18:33.913Z,26.61
2018-07-23T13:19:37.381Z,26.60
2018-07-23T13:20:40.801Z,26.61
2018-07-23T13:21:44.241Z,26.60
2018-07-23T13:22:48.513Z,26.60
2018-07-23T13:23:51.948Z,26.60
2018-07-23T13:24:55.614Z,26.61
2018-07-23T13:25:59.747Z,26.61
2018-07-23T13:27:03.207Z,26.62
2018-07-23T13:28:07.356Z,26.62
2018-07-23T13:29:10.928Z,26.62
2018-07-23T13:30:14.357Z,26.62
2018-07-23T13:31:17.789Z,26.62
2018-07-23T13:32:21.254Z,26.62
2018-07-23T13:33:24.674Z,26.61
2018-07-23T13:34:28.147Z,26.62
2018-07-23T13:35:31.582Z,26.62
2018-07-23T13:36:34.979Z,26.62
2018-07-23T13:37:38.516Z,26.62
2018-07-23T13:38:41.918Z,26.64
2018-07-23T13:39:45.372Z,26.62